Enosburg Center, Vermont
Current Conditions -  °F | °C
As of 7:15 AM on Wednesday 28 Jan 2015 (Local Time) from KFSO Reporting Station
Overcast Overcast  
Wind Chill:   Ceiling: 3800
Heat Index:   Visibility: 10mi
Dew Point:   Wind: 3mph
Humidity: 75%   Direction: 360°N
Pressure: 30.09"   Gusts: NA
Location:  44.8764°N, 72.758°W
Report Text: KFSO 281215Z AUTO 36003KT 10SM SCT028 BKN038 OVC090 M14/M18 A3009 RMK AO2 T11451180
Loading
Personal Weather Stations






























Interactive Weather Map New forecast layout! Learn more

10-Day Weather Forecast

Advertisements
Track Severe Weather on mobile